sensor_id;sensor_type;location;lat;lon;timestamp;P1;durP1;ratioP1;P2;durP2;ratioP2
49296;SDS011;35163;48.878;18.040;2023-08-24T00:01:37;17.15;;;10.13;;
49296;SDS011;35163;48.878;18.040;2023-08-24T00:04:04;23.30;;;10.88;;
49296;SDS011;35163;48.878;18.040;2023-08-24T00:06:31;17.23;;;10.30;;
49296;SDS011;35163;48.878;18.040;2023-08-24T00:08:58;17.30;;;11.63;;
49296;SDS011;35163;48.878;18.040;2023-08-24T00:11:25;16.95;;;10.90;;
49296;SDS011;35163;48.878;18.040;2023-08-24T00:13:52;22.08;;;11.68;;
49296;SDS011;35163;48.878;18.040;2023-08-24T00:16:20;17.70;;;11.23;;
49296;SDS011;35163;48.878;18.040;2023-08-24T00:18:47;18.15;;;11.35;;
49296;SDS011;35163;48.878;18.040;2023-08-24T00:21:14;18.33;;;10.90;;
49296;SDS011;35163;48.878;18.040;2023-08-24T00:23:45;20.23;;;11.27;;
49296;SDS011;35163;48.878;18.040;2023-08-24T00:26:12;17.30;;;10.85;;
49296;SDS011;35163;48.878;18.040;2023-08-24T00:28:39;18.60;;;11.95;;
49296;SDS011;35163;48.878;18.040;2023-08-24T00:31:06;16.88;;;10.82;;
49296;SDS011;35163;48.878;18.040;2023-08-24T00:33:33;18.35;;;11.70;;
49296;SDS011;35163;48.878;18.040;2023-08-24T00:36:00;19.45;;;11.35;;
49296;SDS011;35163;48.878;18.040;2023-08-24T00:38:28;20.85;;;11.68;;
49296;SDS011;35163;48.878;18.040;2023-08-24T00:40:55;17.20;;;11.00;;
49296;SDS011;35163;48.878;18.040;2023-08-24T00:43:22;18.55;;;12.32;;
49296;SDS011;35163;48.878;18.040;2023-08-24T00:45:50;19.00;;;11.73;;
49296;SDS011;35163;48.878;18.040;2023-08-24T00:48:18;21.40;;;11.25;;
49296;SDS011;35163;48.878;18.040;2023-08-24T00:50:45;19.67;;;11.82;;
49296;SDS011;35163;48.878;18.040;2023-08-24T00:53:12;17.52;;;11.10;;
49296;SDS011;35163;48.878;18.040;2023-08-24T00:55:39;20.23;;;11.00;;
49296;SDS011;35163;48.878;18.040;2023-08-24T00:58:06;20.65;;;11.18;;
49296;SDS011;35163;48.878;18.040;2023-08-24T01:00:34;17.38;;;11.65;;
49296;SDS011;35163;48.878;18.040;2023-08-24T01:03:01;16.25;;;11.43;;
49296;SDS011;35163;48.878;18.040;2023-08-24T01:05:28;17.95;;;11.40;;
49296;SDS011;35163;48.878;18.040;2023-08-24T01:07:55;16.00;;;10.65;;
49296;SDS011;35163;48.878;18.040;2023-08-24T01:10:22;19.33;;;11.82;;
49296;SDS011;35163;48.878;18.040;2023-08-24T01:15:32;17.30;;;11.65;;
49296;SDS011;35163;48.878;18.040;2023-08-24T01:18:06;17.13;;;11.45;;
49296;SDS011;35163;48.878;18.040;2023-08-24T01:20:37;15.93;;;10.60;;
49296;SDS011;35163;48.878;18.040;2023-08-24T01:23:18;20.13;;;11.50;;
49296;SDS011;35163;48.878;18.040;2023-08-24T01:28:46;18.58;;;11.15;;
49296;SDS011;35163;48.878;18.040;2023-08-24T01:31:14;19.23;;;11.57;;
49296;SDS011;35163;48.878;18.040;2023-08-24T01:33:45;19.90;;;11.65;;
49296;SDS011;35163;48.878;18.040;2023-08-24T01:36:13;17.80;;;11.77;;
49296;SDS011;35163;48.878;18.040;2023-08-24T01:38:43;25.95;;;12.55;;
49296;SDS011;35163;48.878;18.040;2023-08-24T01:41:20;18.65;;;11.88;;
49296;SDS011;35163;48.878;18.040;2023-08-24T01:43:52;23.05;;;11.75;;
49296;SDS011;35163;48.878;18.040;2023-08-24T01:46:21;17.95;;;12.15;;
49296;SDS011;35163;48.878;18.040;2023-08-24T01:48:48;19.63;;;11.38;;
49296;SDS011;35163;48.878;18.040;2023-08-24T01:51:16;21.27;;;12.60;;
49296;SDS011;35163;48.878;18.040;2023-08-24T01:53:43;16.73;;;11.55;;
49296;SDS011;35163;48.878;18.040;2023-08-24T01:56:12;23.02;;;11.93;;
49296;SDS011;35163;48.878;18.040;2023-08-24T01:58:39;20.85;;;11.63;;
49296;SDS011;35163;48.878;18.040;2023-08-24T02:01:07;18.90;;;11.88;;
49296;SDS011;35163;48.878;18.040;2023-08-24T02:03:35;19.60;;;12.30;;
49296;SDS011;35163;48.878;18.040;2023-08-24T02:06:02;16.90;;;11.02;;
49296;SDS011;35163;48.878;18.040;2023-08-24T02:08:31;20.02;;;12.50;;
49296;SDS011;35163;48.878;18.040;2023-08-24T02:10:57;17.20;;;11.55;;
49296;SDS011;35163;48.878;18.040;2023-08-24T02:13:24;19.50;;;12.15;;
49296;SDS011;35163;48.878;18.040;2023-08-24T02:16:00;17.33;;;11.38;;
49296;SDS011;35163;48.878;18.040;2023-08-24T02:18:30;16.77;;;11.43;;
49296;SDS011;35163;48.878;18.040;2023-08-24T02:20:57;19.77;;;12.00;;
49296;SDS011;35163;48.878;18.040;2023-08-24T02:23:24;19.67;;;12.85;;
49296;SDS011;35163;48.878;18.040;2023-08-24T02:25:51;19.63;;;11.70;;
49296;SDS011;35163;48.878;18.040;2023-08-24T02:28:17;19.27;;;13.50;;
49296;SDS011;35163;48.878;18.040;2023-08-24T02:30:44;19.25;;;12.50;;
49296;SDS011;35163;48.878;18.040;2023-08-24T02:33:11;17.63;;;11.65;;
49296;SDS011;35163;48.878;18.040;2023-08-24T02:35:38;22.63;;;12.05;;
49296;SDS011;35163;48.878;18.040;2023-08-24T02:38:04;17.83;;;12.52;;
49296;SDS011;35163;48.878;18.040;2023-08-24T02:40:31;18.98;;;12.45;;
49296;SDS011;35163;48.878;18.040;2023-08-24T02:42:58;17.52;;;12.32;;
49296;SDS011;35163;48.878;18.040;2023-08-24T02:45:24;22.67;;;13.05;;
49296;SDS011;35163;48.878;18.040;2023-08-24T02:47:51;20.15;;;12.07;;
49296;SDS011;35163;48.878;18.040;2023-08-24T02:50:20;20.25;;;12.40;;
49296;SDS011;35163;48.878;18.040;2023-08-24T02:52:47;19.38;;;12.75;;
49296;SDS011;35163;48.878;18.040;2023-08-24T02:55:14;19.60;;;12.95;;
49296;SDS011;35163;48.878;18.040;2023-08-24T02:57:41;20.98;;;12.35;;
49296;SDS011;35163;48.878;18.040;2023-08-24T03:00:08;20.60;;;13.73;;
49296;SDS011;35163;48.878;18.040;2023-08-24T03:02:36;21.33;;;13.35;;
49296;SDS011;35163;48.878;18.040;2023-08-24T03:05:03;16.73;;;11.82;;
49296;SDS011;35163;48.878;18.040;2023-08-24T03:07:30;19.05;;;12.80;;
49296;SDS011;35163;48.878;18.040;2023-08-24T03:09:56;20.73;;;13.60;;
49296;SDS011;35163;48.878;18.040;2023-08-24T03:12:23;20.80;;;13.35;;
49296;SDS011;35163;48.878;18.040;2023-08-24T03:14:53;18.55;;;13.02;;
49296;SDS011;35163;48.878;18.040;2023-08-24T03:17:20;17.40;;;13.07;;
49296;SDS011;35163;48.878;18.040;2023-08-24T03:19:47;22.40;;;14.05;;
49296;SDS011;35163;48.878;18.040;2023-08-24T03:22:14;20.15;;;12.43;;
49296;SDS011;35163;48.878;18.040;2023-08-24T03:24:41;17.60;;;12.05;;
49296;SDS011;35163;48.878;18.040;2023-08-24T03:27:07;17.23;;;12.45;;
49296;SDS011;35163;48.878;18.040;2023-08-24T03:29:34;19.60;;;13.40;;
49296;SDS011;35163;48.878;18.040;2023-08-24T03:32:01;18.08;;;12.20;;
49296;SDS011;35163;48.878;18.040;2023-08-24T03:34:27;19.90;;;13.18;;
49296;SDS011;35163;48.878;18.040;2023-08-24T03:36:56;19.08;;;13.25;;
49296;SDS011;35163;48.878;18.040;2023-08-24T03:39:22;24.15;;;13.55;;
49296;SDS011;35163;48.878;18.040;2023-08-24T03:41:49;21.85;;;12.23;;
49296;SDS011;35163;48.878;18.040;2023-08-24T03:44:16;25.48;;;12.77;;
49296;SDS011;35163;48.878;18.040;2023-08-24T03:46:42;18.67;;;13.05;;
49296;SDS011;35163;48.878;18.040;2023-08-24T03:49:09;19.45;;;12.95;;
49296;SDS011;35163;48.878;18.040;2023-08-24T03:51:36;20.55;;;13.27;;
49296;SDS011;35163;48.878;18.040;2023-08-24T03:54:03;22.00;;;12.63;;
49296;SDS011;35163;48.878;18.040;2023-08-24T03:56:31;19.80;;;13.52;;
49296;SDS011;35163;48.878;18.040;2023-08-24T03:58:58;19.40;;;13.68;;
49296;SDS011;35163;48.878;18.040;2023-08-24T04:01:25;19.85;;;12.77;;
49296;SDS011;35163;48.878;18.040;2023-08-24T04:03:52;20.13;;;13.43;;
49296;SDS011;35163;48.878;18.040;2023-08-24T04:06:19;25.60;;;12.63;;
49296;SDS011;35163;48.878;18.040;2023-08-24T04:08:46;17.83;;;12.65;;
49296;SDS011;35163;48.878;18.040;2023-08-24T04:11:12;18.45;;;12.70;;
49296;SDS011;35163;48.878;18.040;2023-08-24T04:13:39;21.35;;;13.20;;
49296;SDS011;35163;48.878;18.040;2023-08-24T04:16:06;18.85;;;12.68;;
49296;SDS011;35163;48.878;18.040;2023-08-24T04:18:33;18.85;;;12.52;;
49296;SDS011;35163;48.878;18.040;2023-08-24T04:21:00;21.73;;;13.45;;
49296;SDS011;35163;48.878;18.040;2023-08-24T04:23:27;20.08;;;13.02;;
49296;SDS011;35163;48.878;18.040;2023-08-24T04:25:54;19.58;;;12.68;;
49296;SDS011;35163;48.878;18.040;2023-08-24T04:28:21;21.77;;;14.55;;
49296;SDS011;35163;48.878;18.040;2023-08-24T04:30:51;20.02;;;12.68;;
49296;SDS011;35163;48.878;18.040;2023-08-24T04:33:19;22.63;;;13.10;;
49296;SDS011;35163;48.878;18.040;2023-08-24T04:35:47;17.05;;;11.82;;
49296;SDS011;35163;48.878;18.040;2023-08-24T04:38:14;22.35;;;12.65;;
49296;SDS011;35163;48.878;18.040;2023-08-24T04:40:48;20.23;;;13.65;;
49296;SDS011;35163;48.878;18.040;2023-08-24T04:43:18;23.08;;;13.15;;
49296;SDS011;35163;48.878;18.040;2023-08-24T04:45:45;18.52;;;12.25;;
49296;SDS011;35163;48.878;18.040;2023-08-24T04:48:13;22.50;;;13.13;;
49296;SDS011;35163;48.878;18.040;2023-08-24T04:50:44;22.65;;;13.50;;
49296;SDS011;35163;48.878;18.040;2023-08-24T04:53:14;23.85;;;12.93;;
49296;SDS011;35163;48.878;18.040;2023-08-24T04:55:42;22.35;;;13.30;;
49296;SDS011;35163;48.878;18.040;2023-08-24T04:58:09;22.10;;;14.35;;
49296;SDS011;35163;48.878;18.040;2023-08-24T05:00:37;21.98;;;13.40;;
49296;SDS011;35163;48.878;18.040;2023-08-24T05:03:05;20.05;;;12.85;;
49296;SDS011;35163;48.878;18.040;2023-08-24T05:05:32;19.33;;;12.90;;
49296;SDS011;35163;48.878;18.040;2023-08-24T05:08:01;21.83;;;13.27;;
49296;SDS011;35163;48.878;18.040;2023-08-24T05:10:32;19.88;;;13.68;;
49296;SDS011;35163;48.878;18.040;2023-08-24T05:13:00;20.45;;;12.65;;
49296;SDS011;35163;48.878;18.040;2023-08-24T05:15:26;20.98;;;13.60;;
49296;SDS011;35163;48.878;18.040;2023-08-24T05:17:53;22.55;;;13.15;;
49296;SDS011;35163;48.878;18.040;2023-08-24T05:20:22;22.85;;;13.25;;
49296;SDS011;35163;48.878;18.040;2023-08-24T05:22:49;19.58;;;13.40;;
49296;SDS011;35163;48.878;18.040;2023-08-24T05:25:16;27.77;;;13.77;;
49296;SDS011;35163;48.878;18.040;2023-08-24T05:27:43;21.63;;;12.40;;
49296;SDS011;35163;48.878;18.040;2023-08-24T05:30:10;19.73;;;13.85;;
49296;SDS011;35163;48.878;18.040;2023-08-24T05:32:37;19.17;;;13.05;;
49296;SDS011;35163;48.878;18.040;2023-08-24T05:35:05;18.80;;;12.13;;
49296;SDS011;35163;48.878;18.040;2023-08-24T05:37:33;20.83;;;13.05;;
49296;SDS011;35163;48.878;18.040;2023-08-24T05:40:00;22.73;;;13.23;;
49296;SDS011;35163;48.878;18.040;2023-08-24T05:42:30;19.23;;;12.68;;
49296;SDS011;35163;48.878;18.040;2023-08-24T05:44:57;26.45;;;13.43;;
49296;SDS011;35163;48.878;18.040;2023-08-24T05:47:23;16.67;;;11.77;;
49296;SDS011;35163;48.878;18.040;2023-08-24T05:49:50;18.58;;;12.65;;
49296;SDS011;35163;48.878;18.040;2023-08-24T05:52:17;20.13;;;12.60;;
49296;SDS011;35163;48.878;18.040;2023-08-24T05:54:44;20.48;;;12.48;;
49296;SDS011;35163;48.878;18.040;2023-08-24T05:57:10;21.40;;;13.40;;
49296;SDS011;35163;48.878;18.040;2023-08-24T05:59:37;22.65;;;12.23;;
49296;SDS011;35163;48.878;18.040;2023-08-24T06:02:04;16.52;;;11.95;;
49296;SDS011;35163;48.878;18.040;2023-08-24T06:04:30;22.40;;;13.55;;
49296;SDS011;35163;48.878;18.040;2023-08-24T06:06:57;21.33;;;12.02;;
49296;SDS011;35163;48.878;18.040;2023-08-24T06:09:24;20.23;;;11.57;;
49296;SDS011;35163;48.878;18.040;2023-08-24T06:11:50;18.60;;;12.10;;
49296;SDS011;35163;48.878;18.040;2023-08-24T06:14:17;20.52;;;13.82;;
49296;SDS011;35163;48.878;18.040;2023-08-24T06:16:44;20.40;;;12.13;;
49296;SDS011;35163;48.878;18.040;2023-08-24T06:19:10;22.33;;;11.55;;
49296;SDS011;35163;48.878;18.040;2023-08-24T06:21:37;19.95;;;11.35;;
49296;SDS011;35163;48.878;18.040;2023-08-24T06:24:04;20.00;;;11.60;;
49296;SDS011;35163;48.878;18.040;2023-08-24T06:26:30;16.83;;;11.55;;
49296;SDS011;35163;48.878;18.040;2023-08-24T06:28:57;15.73;;;11.10;;
49296;SDS011;35163;48.878;18.040;2023-08-24T06:31:24;17.73;;;11.13;;
49296;SDS011;35163;48.878;18.040;2023-08-24T06:33:51;17.38;;;10.95;;
49296;SDS011;35163;48.878;18.040;2023-08-24T06:36:17;18.67;;;10.65;;
49296;SDS011;35163;48.878;18.040;2023-08-24T06:38:44;15.05;;;9.82;;
49296;SDS011;35163;48.878;18.040;2023-08-24T06:41:11;17.23;;;10.77;;
49296;SDS011;35163;48.878;18.040;2023-08-24T06:43:38;22.35;;;13.88;;
49296;SDS011;35163;48.878;18.040;2023-08-24T06:46:05;22.10;;;12.80;;
49296;SDS011;35163;48.878;18.040;2023-08-24T06:48:36;16.45;;;11.05;;
49296;SDS011;35163;48.878;18.040;2023-08-24T06:51:03;23.83;;;10.93;;
49296;SDS011;35163;48.878;18.040;2023-08-24T06:53:30;17.35;;;9.93;;
49296;SDS011;35163;48.878;18.040;2023-08-24T06:55:57;17.73;;;10.45;;
49296;SDS011;35163;48.878;18.040;2023-08-24T06:58:24;15.18;;;10.65;;
49296;SDS011;35163;48.878;18.040;2023-08-24T07:00:51;13.60;;;9.35;;
49296;SDS011;35163;48.878;18.040;2023-08-24T07:03:18;16.20;;;9.98;;
49296;SDS011;35163;48.878;18.040;2023-08-24T07:05:45;16.20;;;10.57;;
49296;SDS011;35163;48.878;18.040;2023-08-24T07:08:12;18.60;;;10.55;;
49296;SDS011;35163;48.878;18.040;2023-08-24T07:10:40;14.25;;;9.68;;
49296;SDS011;35163;48.878;18.040;2023-08-24T07:13:07;13.57;;;8.90;;
49296;SDS011;35163;48.878;18.040;2023-08-24T07:15:34;15.40;;;9.50;;
49296;SDS011;35163;48.878;18.040;2023-08-24T07:18:02;13.50;;;8.65;;
49296;SDS011;35163;48.878;18.040;2023-08-24T07:20:29;20.85;;;11.38;;
49296;SDS011;35163;48.878;18.040;2023-08-24T07:22:56;17.63;;;9.25;;
49296;SDS011;35163;48.878;18.040;2023-08-24T07:25:24;18.77;;;10.10;;
49296;SDS011;35163;48.878;18.040;2023-08-24T07:27:50;17.50;;;10.43;;
49296;SDS011;35163;48.878;18.040;2023-08-24T07:30:17;12.43;;;7.68;;
49296;SDS011;35163;48.878;18.040;2023-08-24T07:32:59;14.38;;;9.05;;
49296;SDS011;35163;48.878;18.040;2023-08-24T07:35:27;14.15;;;9.02;;
49296;SDS011;35163;48.878;18.040;2023-08-24T07:37:54;15.05;;;9.18;;
49296;SDS011;35163;48.878;18.040;2023-08-24T07:40:20;18.52;;;10.18;;
49296;SDS011;35163;48.878;18.040;2023-08-24T07:42:48;15.60;;;8.80;;
49296;SDS011;35163;48.878;18.040;2023-08-24T07:45:17;14.07;;;8.75;;
49296;SDS011;35163;48.878;18.040;2023-08-24T07:47:44;17.02;;;10.25;;
49296;SDS011;35163;48.878;18.040;2023-08-24T07:50:11;14.32;;;8.82;;
49296;SDS011;35163;48.878;18.040;2023-08-24T07:52:38;15.45;;;9.30;;
49296;SDS011;35163;48.878;18.040;2023-08-24T07:55:05;14.43;;;8.07;;
49296;SDS011;35163;48.878;18.040;2023-08-24T07:57:33;14.18;;;8.80;;
49296;SDS011;35163;48.878;18.040;2023-08-24T08:00:00;15.77;;;7.78;;
49296;SDS011;35163;48.878;18.040;2023-08-24T08:02:32;11.43;;;7.57;;
49296;SDS011;35163;48.878;18.040;2023-08-24T08:04:59;12.75;;;7.85;;
49296;SDS011;35163;48.878;18.040;2023-08-24T08:07:26;11.63;;;7.07;;
49296;SDS011;35163;48.878;18.040;2023-08-24T08:09:53;16.20;;;7.50;;
49296;SDS011;35163;48.878;18.040;2023-08-24T08:12:19;11.43;;;6.82;;
49296;SDS011;35163;48.878;18.040;2023-08-24T08:14:46;13.25;;;7.25;;
49296;SDS011;35163;48.878;18.040;2023-08-24T08:17:13;11.02;;;7.00;;
49296;SDS011;35163;48.878;18.040;2023-08-24T08:19:40;13.30;;;7.15;;
49296;SDS011;35163;48.878;18.040;2023-08-24T08:22:07;12.65;;;7.75;;
49296;SDS011;35163;48.878;18.040;2023-08-24T08:24:36;14.63;;;6.45;;
49296;SDS011;35163;48.878;18.040;2023-08-24T08:27:02;16.20;;;7.57;;
49296;SDS011;35163;48.878;18.040;2023-08-24T08:29:29;10.73;;;6.38;;
49296;SDS011;35163;48.878;18.040;2023-08-24T08:31:56;11.20;;;6.55;;
49296;SDS011;35163;48.878;18.040;2023-08-24T08:34:23;13.20;;;6.43;;
49296;SDS011;35163;48.878;18.040;2023-08-24T08:36:50;12.05;;;6.97;;
49296;SDS011;35163;48.878;18.040;2023-08-24T08:39:16;12.98;;;6.28;;
49296;SDS011;35163;48.878;18.040;2023-08-24T08:41:44;13.50;;;6.32;;
49296;SDS011;35163;48.878;18.040;2023-08-24T08:44:15;9.82;;;5.75;;
49296;SDS011;35163;48.878;18.040;2023-08-24T08:46:42;10.55;;;6.22;;
49296;SDS011;35163;48.878;18.040;2023-08-24T08:49:10;10.50;;;5.57;;
49296;SDS011;35163;48.878;18.040;2023-08-24T08:51:42;11.40;;;6.07;;
49296;SDS011;35163;48.878;18.040;2023-08-24T08:54:09;9.93;;;5.20;;
49296;SDS011;35163;48.878;18.040;2023-08-24T08:56:36;10.35;;;5.32;;
49296;SDS011;35163;48.878;18.040;2023-08-24T08:59:03;13.13;;;5.50;;
49296;SDS011;35163;48.878;18.040;2023-08-24T09:01:32;11.52;;;6.03;;
49296;SDS011;35163;48.878;18.040;2023-08-24T09:04:00;11.98;;;5.63;;
49296;SDS011;35163;48.878;18.040;2023-08-24T09:06:27;10.95;;;4.05;;
49296;SDS011;35163;48.878;18.040;2023-08-24T09:08:54;12.23;;;5.05;;
49296;SDS011;35163;48.878;18.040;2023-08-24T09:11:22;12.32;;;4.47;;
49296;SDS011;35163;48.878;18.040;2023-08-24T09:13:50;9.25;;;4.28;;
49296;SDS011;35163;48.878;18.040;2023-08-24T09:16:16;10.70;;;4.20;;
49296;SDS011;35163;48.878;18.040;2023-08-24T09:18:45;8.25;;;4.50;;
49296;SDS011;35163;48.878;18.040;2023-08-24T09:21:16;8.95;;;4.32;;
49296;SDS011;35163;48.878;18.040;2023-08-24T09:23:43;15.88;;;5.38;;
49296;SDS011;35163;48.878;18.040;2023-08-24T09:26:12;14.30;;;5.82;;
49296;SDS011;35163;48.878;18.040;2023-08-24T09:28:41;14.73;;;4.97;;
49296;SDS011;35163;48.878;18.040;2023-08-24T09:31:11;13.02;;;5.20;;
49296;SDS011;35163;48.878;18.040;2023-08-24T09:33:39;10.32;;;5.28;;
49296;SDS011;35163;48.878;18.040;2023-08-24T09:36:09;10.77;;;5.45;;
49296;SDS011;35163;48.878;18.040;2023-08-24T09:38:35;8.68;;;4.57;;
49296;SDS011;35163;48.878;18.040;2023-08-24T09:41:02;9.23;;;4.88;;
49296;SDS011;35163;48.878;18.040;2023-08-24T09:43:30;11.10;;;4.57;;
49296;SDS011;35163;48.878;18.040;2023-08-24T09:45:57;9.70;;;4.43;;
49296;SDS011;35163;48.878;18.040;2023-08-24T09:48:25;7.43;;;4.07;;
49296;SDS011;35163;48.878;18.040;2023-08-24T09:50:55;7.45;;;4.22;;
49296;SDS011;35163;48.878;18.040;2023-08-24T09:53:24;13.52;;;4.15;;
49296;SDS011;35163;48.878;18.040;2023-08-24T09:55:56;11.27;;;5.15;;
49296;SDS011;35163;48.878;18.040;2023-08-24T09:58:29;12.45;;;4.18;;
49296;SDS011;35163;48.878;18.040;2023-08-24T10:00:57;7.93;;;4.22;;
49296;SDS011;35163;48.878;18.040;2023-08-24T10:03:24;9.52;;;4.20;;
49296;SDS011;35163;48.878;18.040;2023-08-24T10:05:56;8.38;;;4.07;;
49296;SDS011;35163;48.878;18.040;2023-08-24T10:08:37;10.68;;;4.35;;
49296;SDS011;35163;48.878;18.040;2023-08-24T10:11:09;8.43;;;4.05;;
49296;SDS011;35163;48.878;18.040;2023-08-24T10:16:27;7.75;;;4.15;;
49296;SDS011;35163;48.878;18.040;2023-08-24T10:18:56;9.98;;;4.38;;
49296;SDS011;35163;48.878;18.040;2023-08-24T10:21:23;7.80;;;3.80;;
49296;SDS011;35163;48.878;18.040;2023-08-24T10:23:52;8.18;;;4.22;;
49296;SDS011;35163;48.878;18.040;2023-08-24T10:26:20;8.00;;;4.25;;
49296;SDS011;35163;48.878;18.040;2023-08-24T10:28:52;7.43;;;3.90;;
49296;SDS011;35163;48.878;18.040;2023-08-24T10:31:19;12.50;;;3.90;;
49296;SDS011;35163;48.878;18.040;2023-08-24T10:33:47;7.60;;;3.97;;
49296;SDS011;35163;48.878;18.040;2023-08-24T10:36:15;9.85;;;4.20;;
49296;SDS011;35163;48.878;18.040;2023-08-24T10:38:44;9.35;;;4.65;;
49296;SDS011;35163;48.878;18.040;2023-08-24T10:41:11;9.68;;;4.18;;
49296;SDS011;35163;48.878;18.040;2023-08-24T10:43:42;7.40;;;3.55;;
49296;SDS011;35163;48.878;18.040;2023-08-24T10:46:15;8.88;;;3.40;;
49296;SDS011;35163;48.878;18.040;2023-08-24T10:56:29;11.38;;;3.20;;
49296;SDS011;35163;48.878;18.040;2023-08-24T10:59:19;5.40;;;3.13;;
49296;SDS011;35163;48.878;18.040;2023-08-24T11:04:18;6.15;;;3.78;;
49296;SDS011;35163;48.878;18.040;2023-08-24T11:06:52;7.53;;;3.05;;
49296;SDS011;35163;48.878;18.040;2023-08-24T11:09:23;6.82;;;3.35;;
49296;SDS011;35163;48.878;18.040;2023-08-24T11:11:57;5.60;;;2.95;;
49296;SDS011;35163;48.878;18.040;2023-08-24T11:14:29;7.15;;;3.10;;
49296;SDS011;35163;48.878;18.040;2023-08-24T11:17:00;7.63;;;3.25;;
49296;SDS011;35163;48.878;18.040;2023-08-24T11:19:49;5.13;;;2.92;;
49296;SDS011;35163;48.878;18.040;2023-08-24T11:22:17;7.38;;;3.22;;
49296;SDS011;35163;48.878;18.040;2023-08-24T11:24:44;7.57;;;3.33;;
49296;SDS011;35163;48.878;18.040;2023-08-24T11:27:11;7.57;;;3.45;;
49296;SDS011;35163;48.878;18.040;2023-08-24T11:29:38;7.50;;;3.20;;
49296;SDS011;35163;48.878;18.040;2023-08-24T11:32:05;5.78;;;3.38;;
49296;SDS011;35163;48.878;18.040;2023-08-24T11:34:33;9.43;;;3.40;;
49296;SDS011;35163;48.878;18.040;2023-08-24T11:37:00;8.77;;;3.30;;
49296;SDS011;35163;48.878;18.040;2023-08-24T11:39:28;7.10;;;3.28;;
49296;SDS011;35163;48.878;18.040;2023-08-24T11:42:02;9.35;;;4.90;;
49296;SDS011;35163;48.878;18.040;2023-08-24T11:44:44;6.75;;;3.78;;
49296;SDS011;35163;48.878;18.040;2023-08-24T11:47:14;8.17;;;4.17;;
49296;SDS011;35163;48.878;18.040;2023-08-24T11:49:41;7.53;;;3.20;;
49296;SDS011;35163;48.878;18.040;2023-08-24T11:52:08;8.00;;;3.78;;
49296;SDS011;35163;48.878;18.040;2023-08-24T11:54:38;6.55;;;3.25;;
49296;SDS011;35163;48.878;18.040;2023-08-24T11:57:05;9.75;;;3.30;;
49296;SDS011;35163;48.878;18.040;2023-08-24T11:59:33;7.25;;;2.95;;
49296;SDS011;35163;48.878;18.040;2023-08-24T12:02:02;6.43;;;3.35;;
49296;SDS011;35163;48.878;18.040;2023-08-24T12:04:39;5.95;;;3.40;;
49296;SDS011;35163;48.878;18.040;2023-08-24T12:07:12;9.27;;;3.47;;
49296;SDS011;35163;48.878;18.040;2023-08-24T12:09:40;9.77;;;3.67;;
49296;SDS011;35163;48.878;18.040;2023-08-24T12:12:14;7.03;;;3.53;;
49296;SDS011;35163;48.878;18.040;2023-08-24T12:14:42;8.05;;;3.40;;
49296;SDS011;35163;48.878;18.040;2023-08-24T12:17:13;7.50;;;3.60;;
49296;SDS011;35163;48.878;18.040;2023-08-24T12:19:44;6.38;;;3.58;;
49296;SDS011;35163;48.878;18.040;2023-08-24T12:22:15;6.53;;;2.92;;
49296;SDS011;35163;48.878;18.040;2023-08-24T12:24:46;6.65;;;3.30;;
49296;SDS011;35163;48.878;18.040;2023-08-24T12:27:19;8.18;;;3.67;;
49296;SDS011;35163;48.878;18.040;2023-08-24T12:29:47;9.75;;;3.30;;
49296;SDS011;35163;48.878;18.040;2023-08-24T12:32:14;6.65;;;3.28;;
49296;SDS011;35163;48.878;18.040;2023-08-24T12:34:46;7.50;;;3.72;;
49296;SDS011;35163;48.878;18.040;2023-08-24T12:37:13;7.82;;;3.53;;
49296;SDS011;35163;48.878;18.040;2023-08-24T12:39:40;7.35;;;3.38;;
49296;SDS011;35163;48.878;18.040;2023-08-24T12:42:06;8.13;;;3.75;;
49296;SDS011;35163;48.878;18.040;2023-08-24T12:44:33;8.05;;;3.45;;
49296;SDS011;35163;48.878;18.040;2023-08-24T12:47:00;6.35;;;3.47;;
49296;SDS011;35163;48.878;18.040;2023-08-24T12:49:27;8.35;;;3.50;;
49296;SDS011;35163;48.878;18.040;2023-08-24T12:51:53;8.18;;;4.05;;
49296;SDS011;35163;48.878;18.040;2023-08-24T12:54:20;6.07;;;3.63;;
49296;SDS011;35163;48.878;18.040;2023-08-24T12:56:47;6.57;;;3.55;;
49296;SDS011;35163;48.878;18.040;2023-08-24T12:59:14;8.13;;;3.72;;
49296;SDS011;35163;48.878;18.040;2023-08-24T13:01:41;7.32;;;3.35;;
49296;SDS011;35163;48.878;18.040;2023-08-24T13:04:08;7.75;;;4.05;;
49296;SDS011;35163;48.878;18.040;2023-08-24T13:06:35;7.57;;;3.85;;
49296;SDS011;35163;48.878;18.040;2023-08-24T13:09:02;6.47;;;3.63;;
49296;SDS011;35163;48.878;18.040;2023-08-24T13:11:29;14.55;;;3.78;;
49296;SDS011;35163;48.878;18.040;2023-08-24T13:13:56;7.97;;;3.40;;
49296;SDS011;35163;48.878;18.040;2023-08-24T13:16:23;9.88;;;3.90;;
49296;SDS011;35163;48.878;18.040;2023-08-24T13:18:49;7.30;;;3.60;;
49296;SDS011;35163;48.878;18.040;2023-08-24T13:21:16;8.45;;;3.55;;
49296;SDS011;35163;48.878;18.040;2023-08-24T13:23:44;9.25;;;4.05;;
49296;SDS011;35163;48.878;18.040;2023-08-24T13:26:17;5.32;;;3.08;;
49296;SDS011;35163;48.878;18.040;2023-08-24T13:28:46;8.05;;;3.90;;
49296;SDS011;35163;48.878;18.040;2023-08-24T13:31:14;11.70;;;4.25;;
49296;SDS011;35163;48.878;18.040;2023-08-24T13:33:40;9.02;;;3.67;;
49296;SDS011;35163;48.878;18.040;2023-08-24T13:36:07;6.72;;;3.65;;
49296;SDS011;35163;48.878;18.040;2023-08-24T13:38:34;6.72;;;3.50;;
49296;SDS011;35163;48.878;18.040;2023-08-24T13:41:01;7.03;;;3.88;;
49296;SDS011;35163;48.878;18.040;2023-08-24T13:43:31;8.48;;;3.90;;
49296;SDS011;35163;48.878;18.040;2023-08-24T13:45:58;9.82;;;3.63;;
49296;SDS011;35163;48.878;18.040;2023-08-24T13:48:29;8.98;;;3.80;;
49296;SDS011;35163;48.878;18.040;2023-08-24T13:50:59;10.38;;;4.05;;
49296;SDS011;35163;48.878;18.040;2023-08-24T13:53:26;6.30;;;3.70;;
49296;SDS011;35163;48.878;18.040;2023-08-24T13:55:53;7.93;;;3.75;;
49296;SDS011;35163;48.878;18.040;2023-08-24T13:58:19;7.80;;;3.90;;
49296;SDS011;35163;48.878;18.040;2023-08-24T14:00:46;7.55;;;3.88;;
49296;SDS011;35163;48.878;18.040;2023-08-24T14:03:13;7.18;;;3.85;;
49296;SDS011;35163;48.878;18.040;2023-08-24T14:05:40;7.25;;;3.50;;
49296;SDS011;35163;48.878;18.040;2023-08-24T14:08:08;8.15;;;4.50;;
49296;SDS011;35163;48.878;18.040;2023-08-24T14:10:35;7.57;;;3.88;;
49296;SDS011;35163;48.878;18.040;2023-08-24T14:13:01;5.75;;;3.47;;
49296;SDS011;35163;48.878;18.040;2023-08-24T14:15:29;7.80;;;3.65;;
49296;SDS011;35163;48.878;18.040;2023-08-24T14:17:56;6.13;;;3.10;;
49296;SDS011;35163;48.878;18.040;2023-08-24T14:20:24;9.40;;;3.70;;
49296;SDS011;35163;48.878;18.040;2023-08-24T14:22:50;6.75;;;3.42;;
49296;SDS011;35163;48.878;18.040;2023-08-24T14:25:17;7.70;;;3.75;;
49296;SDS011;35163;48.878;18.040;2023-08-24T14:27:44;9.82;;;4.40;;
49296;SDS011;35163;48.878;18.040;2023-08-24T14:30:28;10.20;;;4.28;;
49296;SDS011;35163;48.878;18.040;2023-08-24T14:32:54;8.23;;;4.20;;
49296;SDS011;35163;48.878;18.040;2023-08-24T14:35:21;7.78;;;3.45;;
49296;SDS011;35163;48.878;18.040;2023-08-24T14:37:48;6.72;;;3.38;;
49296;SDS011;35163;48.878;18.040;2023-08-24T14:40:15;6.13;;;3.03;;
49296;SDS011;35163;48.878;18.040;2023-08-24T14:42:42;8.70;;;3.75;;